sensor_id;sensor_type;location;lat;lon;timestamp;pressure;altitude;pressure_sealevel;temperature;humidity
72423;BME280;60413;55.658;37.498;2023-03-18T00:02:01;100427.44;;;-2.61;100.00
72423;BME280;60413;55.658;37.498;2023-03-18T00:04:27;100452.97;;;-2.47;100.00
72423;BME280;60413;55.658;37.498;2023-03-18T00:06:54;100498.69;;;-2.15;100.00
72423;BME280;60413;55.658;37.498;2023-03-18T00:09:22;100408.78;;;-2.76;100.00
72423;BME280;60413;55.658;37.498;2023-03-18T00:11:48;100439.53;;;-2.62;100.00
72423;BME280;60413;55.658;37.498;2023-03-18T00:14:18;100426.63;;;-2.73;100.00
72423;BME280;60413;55.658;37.498;2023-03-18T00:16:45;100424.84;;;-2.72;100.00
72423;BME280;60413;55.658;37.498;2023-03-18T00:19:12;100435.31;;;-2.74;100.00
72423;BME280;60413;55.658;37.498;2023-03-18T00:21:41;100462.41;;;-2.57;100.00
72423;BME280;60413;55.658;37.498;2023-03-18T00:24:14;100441.75;;;-2.68;100.00
72423;BME280;60413;55.658;37.498;2023-03-18T00:26:44;100447.59;;;-2.55;100.00
72423;BME280;60413;55.658;37.498;2023-03-18T00:29:11;100463.09;;;-2.55;100.00
72423;BME280;60413;55.658;37.498;2023-03-18T00:31:40;100434.81;;;-2.68;100.00
72423;BME280;60413;55.658;37.498;2023-03-18T00:34:09;100511.63;;;-2.26;100.00
72423;BME280;60413;55.658;37.498;2023-03-18T00:36:42;100484.06;;;-2.48;100.00
72423;BME280;60413;55.658;37.498;2023-03-18T00:39:13;100463.09;;;-2.55;100.00
72423;BME280;60413;55.658;37.498;2023-03-18T00:41:58;100425.94;;;-2.86;100.00
72423;BME280;60413;55.658;37.498;2023-03-18T00:44:32;100439.31;;;-2.81;100.00
72423;BME280;60413;55.658;37.498;2023-03-18T00:47:01;100489.94;;;-2.46;100.00
72423;BME280;60413;55.658;37.498;2023-03-18T00:49:28;100471.75;;;-2.56;100.00
72423;BME280;60413;55.658;37.498;2023-03-18T00:52:08;100450.19;;;-2.77;100.00
72423;BME280;60413;55.658;37.498;2023-03-18T00:54:34;100457.25;;;-2.80;100.00
72423;BME280;60413;55.658;37.498;2023-03-18T00:57:03;100513.50;;;-2.39;100.00
72423;BME280;60413;55.658;37.498;2023-03-18T00:59:30;100473.66;;;-2.69;100.00
72423;BME280;60413;55.658;37.498;2023-03-18T01:02:01;100503.94;;;-2.60;100.00
72423;BME280;60413;55.658;37.498;2023-03-18T01:04:27;100437.09;;;-2.97;100.00
72423;BME280;60413;55.658;37.498;2023-03-18T01:06:53;100464.88;;;-2.78;100.00
72423;BME280;60413;55.658;37.498;2023-03-18T01:09:22;100448.81;;;-2.93;100.00
72423;BME280;60413;55.658;37.498;2023-03-18T01:11:48;100444.84;;;-2.97;100.00
72423;BME280;60413;55.658;37.498;2023-03-18T01:14:18;100543.22;;;-2.45;100.00
72423;BME280;60413;55.658;37.498;2023-03-18T01:16:49;100445.53;;;-3.06;100.00
72423;BME280;60413;55.658;37.498;2023-03-18T01:19:16;100496.91;;;-2.81;100.00
72423;BME280;60413;55.658;37.498;2023-03-18T01:21:43;100462.78;;;-2.95;100.00
72423;BME280;60413;55.658;37.498;2023-03-18T01:24:10;100546.84;;;-2.48;100.00
72423;BME280;60413;55.658;37.498;2023-03-18T01:26:39;100531.97;;;-2.55;100.00
72423;BME280;60413;55.658;37.498;2023-03-18T01:29:06;100446.59;;;-3.09;100.00
72423;BME280;60413;55.658;37.498;2023-03-18T01:31:36;100504.41;;;-2.89;100.00
72423;BME280;60413;55.658;37.498;2023-03-18T01:34:14;100462.78;;;-3.07;100.00
72423;BME280;60413;55.658;37.498;2023-03-18T01:36:50;100486.22;;;-2.99;100.00
72423;BME280;60413;55.658;37.498;2023-03-18T01:39:19;100494.09;;;-2.89;100.00
72423;BME280;60413;55.658;37.498;2023-03-18T01:41:47;100458.41;;;-3.18;100.00
72423;BME280;60413;55.658;37.498;2023-03-18T01:44:21;100560.00;;;-2.62;100.00
72423;BME280;60413;55.658;37.498;2023-03-18T01:46:50;100559.78;;;-2.70;100.00
72423;BME280;60413;55.658;37.498;2023-03-18T01:49:33;100497.69;;;-3.03;100.00
72423;BME280;60413;55.658;37.498;2023-03-18T01:52:13;100513.75;;;-2.99;100.00
72423;BME280;60413;55.658;37.498;2023-03-18T01:54:48;100533.94;;;-2.93;100.00
72423;BME280;60413;55.658;37.498;2023-03-18T01:57:15;100480.78;;;-3.29;100.00
72423;BME280;60413;55.658;37.498;2023-03-18T01:59:44;100552.69;;;-2.91;100.00
72423;BME280;60413;55.658;37.498;2023-03-18T02:02:17;100480.41;;;-3.36;100.00
72423;BME280;60413;55.658;37.498;2023-03-18T02:04:50;100499.94;;;-3.21;100.00
72423;BME280;60413;55.658;37.498;2023-03-18T02:07:33;100528.06;;;-3.06;100.00
72423;BME280;60413;55.658;37.498;2023-03-18T02:10:06;100506.34;;;-3.26;100.00
72423;BME280;60413;55.658;37.498;2023-03-18T02:12:42;100581.09;;;-2.80;100.00
72423;BME280;60413;55.658;37.498;2023-03-18T02:15:17;100486.31;;;-3.34;100.00
72423;BME280;60413;55.658;37.498;2023-03-18T02:17:51;100503.72;;;-3.38;100.00
72423;BME280;60413;55.658;37.498;2023-03-18T02:20:50;100591.41;;;-2.80;100.00
72423;BME280;60413;55.658;37.498;2023-03-18T02:28:51;100507.81;;;-3.46;100.00
72423;BME280;60413;55.658;37.498;2023-03-18T02:31:19;100543.84;;;-3.33;100.00
72423;BME280;60413;55.658;37.498;2023-03-18T02:33:46;100517.44;;;-3.48;100.00
72423;BME280;60413;55.658;37.498;2023-03-18T02:36:23;100610.41;;;-2.92;100.00
72423;BME280;60413;55.658;37.498;2023-03-18T02:38:52;100553.56;;;-3.26;100.00
72423;BME280;60413;55.658;37.498;2023-03-18T02:41:34;100512.59;;;-3.53;100.00
72423;BME280;60413;55.658;37.498;2023-03-18T02:44:03;100623.09;;;-2.89;100.00
72423;BME280;60413;55.658;37.498;2023-03-18T02:46:55;100610.28;;;-2.90;100.00
72423;BME280;60413;55.658;37.498;2023-03-18T02:49:25;100517.53;;;-3.50;100.00
72423;BME280;60413;55.658;37.498;2023-03-18T02:51:56;100636.69;;;-2.87;100.00
72423;BME280;60413;55.658;37.498;2023-03-18T02:54:27;100552.16;;;-3.30;100.00
72423;BME280;60413;55.658;37.498;2023-03-18T02:56:54;100531.97;;;-3.47;100.00
72423;BME280;60413;55.658;37.498;2023-03-18T02:59:24;100564.91;;;-3.40;100.00
72423;BME280;60413;55.658;37.498;2023-03-18T03:02:01;100575.22;;;-3.40;100.00
72423;BME280;60413;55.658;37.498;2023-03-18T03:04:27;100553.94;;;-3.55;100.00
72423;BME280;60413;55.658;37.498;2023-03-18T03:06:58;100552.28;;;-3.67;100.00
72423;BME280;60413;55.658;37.498;2023-03-18T03:09:47;100548.25;;;-3.71;100.00
72423;BME280;60413;55.658;37.498;2023-03-18T03:12:14;100568.59;;;-3.55;100.00
72423;BME280;60413;55.658;37.498;2023-03-18T03:14:49;100578.59;;;-3.50;100.00
72423;BME280;60413;55.658;37.498;2023-03-18T03:17:18;100598.84;;;-3.46;100.00
72423;BME280;60413;55.658;37.498;2023-03-18T03:19:45;100538.53;;;-3.79;100.00
72423;BME280;60413;55.658;37.498;2023-03-18T03:22:16;100544.16;;;-3.74;100.00
72423;BME280;60413;55.658;37.498;2023-03-18T03:24:47;100585.19;;;-3.59;100.00
72423;BME280;60413;55.658;37.498;2023-03-18T03:27:13;100582.03;;;-3.63;100.00
72423;BME280;60413;55.658;37.498;2023-03-18T03:29:52;100584.06;;;-3.55;100.00
72423;BME280;60413;55.658;37.498;2023-03-18T03:32:19;100586.97;;;-3.60;100.00
72423;BME280;60413;55.658;37.498;2023-03-18T03:34:52;100596.34;;;-3.59;100.00
72423;BME280;60413;55.658;37.498;2023-03-18T03:37:18;100601.41;;;-3.46;100.00
72423;BME280;60413;55.658;37.498;2023-03-18T03:39:49;100555.31;;;-3.86;100.00
72423;BME280;60413;55.658;37.498;2023-03-18T03:42:15;100576.53;;;-3.58;100.00
72423;BME280;60413;55.658;37.498;2023-03-18T03:44:42;100593.06;;;-3.61;100.00
72423;BME280;60413;55.658;37.498;2023-03-18T03:47:08;100633.13;;;-3.32;100.00
72423;BME280;60413;55.658;37.498;2023-03-18T03:49:35;100544.38;;;-3.77;100.00
72423;BME280;60413;55.658;37.498;2023-03-18T03:52:01;100565.69;;;-3.50;100.00
72423;BME280;60413;55.658;37.498;2023-03-18T03:54:28;100591.94;;;-2.40;100.00
72423;BME280;60413;55.658;37.498;2023-03-18T03:56:59;100557.34;;;-1.94;100.00
72423;BME280;60413;55.658;37.498;2023-03-18T03:59:28;100575.38;;;-1.18;100.00
72423;BME280;60413;55.658;37.498;2023-03-18T04:02:08;100616.66;;;-0.44;100.00
72423;BME280;60413;55.658;37.498;2023-03-18T04:04:36;100615.66;;;-0.22;100.00
72423;BME280;60413;55.658;37.498;2023-03-18T04:07:04;100674.00;;;0.64;100.00
72423;BME280;60413;55.658;37.498;2023-03-18T04:09:30;100660.19;;;0.63;100.00
72423;BME280;60413;55.658;37.498;2023-03-18T04:11:56;100598.28;;;0.20;100.00
72423;BME280;60413;55.658;37.498;2023-03-18T04:14:24;100623.03;;;0.53;100.00
72423;BME280;60413;55.658;37.498;2023-03-18T04:16:51;100593.09;;;1.07;100.00
72423;BME280;60413;55.658;37.498;2023-03-18T04:19:17;100600.19;;;1.15;100.00
72423;BME280;60413;55.658;37.498;2023-03-18T04:21:48;100618.25;;;1.54;100.00
72423;BME280;60413;55.658;37.498;2023-03-18T04:24:25;100660.91;;;1.99;100.00
72423;BME280;60413;55.658;37.498;2023-03-18T04:26:53;100623.19;;;1.57;100.00
72423;BME280;60413;55.658;37.498;2023-03-18T04:29:22;100663.75;;;2.06;100.00
72423;BME280;60413;55.658;37.498;2023-03-18T04:31:49;100690.53;;;2.62;100.00
72423;BME280;60413;55.658;37.498;2023-03-18T04:34:17;100695.75;;;2.80;100.00
72423;BME280;60413;55.658;37.498;2023-03-18T04:36:47;100630.78;;;2.42;100.00
72423;BME280;60413;55.658;37.498;2023-03-18T04:39:21;100689.72;;;2.61;100.00
72423;BME280;60413;55.658;37.498;2023-03-18T04:42:11;100657.72;;;2.87;100.00
72423;BME280;60413;55.658;37.498;2023-03-18T04:44:38;100652.56;;;3.31;100.00
72423;BME280;60413;55.658;37.498;2023-03-18T04:47:15;100662.59;;;3.78;100.00
72423;BME280;60413;55.658;37.498;2023-03-18T04:54:22;100723.44;;;3.87;100.00
72423;BME280;60413;55.658;37.498;2023-03-18T04:56:57;100678.13;;;3.88;100.00
72423;BME280;60413;55.658;37.498;2023-03-18T04:59:36;100665.16;;;3.44;100.00
72423;BME280;60413;55.658;37.498;2023-03-18T05:02:12;100681.28;;;3.39;100.00
72423;BME280;60413;55.658;37.498;2023-03-18T05:04:40;100674.13;;;3.41;100.00
72423;BME280;60413;55.658;37.498;2023-03-18T05:07:15;100674.13;;;3.23;100.00
72423;BME280;60413;55.658;37.498;2023-03-18T05:10:18;100685.28;;;3.33;100.00
72423;BME280;60413;55.658;37.498;2023-03-18T05:14:10;100694.53;;;3.80;100.00
72423;BME280;60413;55.658;37.498;2023-03-18T05:16:52;100725.47;;;4.01;100.00
72423;BME280;60413;55.658;37.498;2023-03-18T05:33:26;100681.94;;;4.02;100.00
72423;BME280;60413;55.658;37.498;2023-03-18T05:36:07;100720.41;;;4.00;100.00
72423;BME280;60413;55.658;37.498;2023-03-18T05:39:59;100740.03;;;4.55;100.00
72423;BME280;60413;55.658;37.498;2023-03-18T05:46:07;100697.28;;;4.05;100.00
72423;BME280;60413;55.658;37.498;2023-03-18T05:48:58;100685.31;;;3.94;100.00
72423;BME280;60413;55.658;37.498;2023-03-18T05:51:35;100760.97;;;4.29;100.00
72423;BME280;60413;55.658;37.498;2023-03-18T05:54:12;100687.19;;;4.10;100.00
72423;BME280;60413;55.658;37.498;2023-03-18T05:56:43;100752.75;;;4.15;100.00
72423;BME280;60413;55.658;37.498;2023-03-18T05:59:19;100695.81;;;4.11;100.00
72423;BME280;60413;55.658;37.498;2023-03-18T06:02:05;100723.34;;;4.48;100.00
72423;BME280;60413;55.658;37.498;2023-03-18T06:04:32;100714.69;;;4.39;100.00
72423;BME280;60413;55.658;37.498;2023-03-18T06:07:04;100733.31;;;5.19;100.00
72423;BME280;60413;55.658;37.498;2023-03-18T06:09:33;100733.63;;;5.16;100.00
72423;BME280;60413;55.658;37.498;2023-03-18T06:12:07;100753.38;;;5.60;100.00
72423;BME280;60413;55.658;37.498;2023-03-18T06:14:40;100725.06;;;5.72;100.00
72423;BME280;60413;55.658;37.498;2023-03-18T06:17:09;100783.59;;;6.52;100.00
72423;BME280;60413;55.658;37.498;2023-03-18T06:19:41;100747.06;;;6.58;100.00
72423;BME280;60413;55.658;37.498;2023-03-18T06:24:56;100747.56;;;6.85;100.00
72423;BME280;60413;55.658;37.498;2023-03-18T06:27:26;100798.53;;;8.05;100.00
72423;BME280;60413;55.658;37.498;2023-03-18T06:29:55;100800.00;;;8.07;100.00
72423;BME280;60413;55.658;37.498;2023-03-18T06:32:27;100792.75;;;7.94;100.00
72423;BME280;60413;55.658;37.498;2023-03-18T06:34:57;100765.88;;;7.54;100.00
72423;BME280;60413;55.658;37.498;2023-03-18T06:37:31;100726.47;;;7.24;100.00
72423;BME280;60413;55.658;37.498;2023-03-18T06:40:00;100769.97;;;7.57;100.00
72423;BME280;60413;55.658;37.498;2023-03-18T06:42:31;100759.41;;;8.40;100.00
72423;BME280;60413;55.658;37.498;2023-03-18T06:45:11;100777.63;;;7.96;100.00
72423;BME280;60413;55.658;37.498;2023-03-18T06:47:53;100754.47;;;7.47;100.00
72423;BME280;60413;55.658;37.498;2023-03-18T06:50:20;100755.19;;;7.41;100.00
72423;BME280;60413;55.658;37.498;2023-03-18T06:52:47;100740.50;;;7.32;100.00
72423;BME280;60413;55.658;37.498;2023-03-18T06:55:17;100766.06;;;7.53;100.00
72423;BME280;60413;55.658;37.498;2023-03-18T06:57:47;100753.53;;;7.78;100.00
72423;BME280;60413;55.658;37.498;2023-03-18T07:00:21;100766.91;;;7.68;100.00
72423;BME280;60413;55.658;37.498;2023-03-18T07:03:01;100778.63;;;7.19;100.00
72423;BME280;60413;55.658;37.498;2023-03-18T07:05:38;100798.41;;;6.99;100.00
72423;BME280;60413;55.658;37.498;2023-03-18T07:08:10;100764.03;;;7.40;100.00
72423;BME280;60413;55.658;37.498;2023-03-18T07:10:56;100773.72;;;7.16;100.00
72423;BME280;60413;55.658;37.498;2023-03-18T07:13:29;100772.69;;;7.26;100.00
72423;BME280;60413;55.658;37.498;2023-03-18T07:15:56;100757.03;;;6.86;100.00
72423;BME280;60413;55.658;37.498;2023-03-18T07:18:30;100749.59;;;7.21;100.00
72423;BME280;60413;55.658;37.498;2023-03-18T07:21:16;100748.22;;;7.10;100.00
72423;BME280;60413;55.658;37.498;2023-03-18T07:24:12;100771.63;;;7.73;100.00
72423;BME280;60413;55.658;37.498;2023-03-18T07:26:52;100818.63;;;8.50;100.00
72423;BME280;60413;55.658;37.498;2023-03-18T07:29:32;100787.88;;;8.21;100.00
72423;BME280;60413;55.658;37.498;2023-03-18T07:32:13;100806.97;;;8.30;100.00
72423;BME280;60413;55.658;37.498;2023-03-18T07:34:50;100815.13;;;8.20;100.00
72423;BME280;60413;55.658;37.498;2023-03-18T07:37:25;100800.38;;;8.04;100.00
72423;BME280;60413;55.658;37.498;2023-03-18T07:39:59;100832.69;;;7.67;100.00
72423;BME280;60413;55.658;37.498;2023-03-18T07:42:31;100752.78;;;7.08;100.00
72423;BME280;60413;55.658;37.498;2023-03-18T07:45:08;100758.44;;;7.43;100.00
72423;BME280;60413;55.658;37.498;2023-03-18T07:48:12;100817.50;;;8.45;100.00
72423;BME280;60413;55.658;37.498;2023-03-18T07:50:48;100767.84;;;8.20;100.00
72423;BME280;60413;55.658;37.498;2023-03-18T07:56:54;100784.09;;;6.47;100.00
72423;BME280;60413;55.658;37.498;2023-03-18T07:59:27;100827.69;;;6.79;100.00
72423;BME280;60413;55.658;37.498;2023-03-18T08:02:10;100751.25;;;6.28;100.00
72423;BME280;60413;55.658;37.498;2023-03-18T08:04:45;100773.88;;;6.21;100.00
72423;BME280;60413;55.658;37.498;2023-03-18T08:07:13;100755.97;;;5.68;100.00
72423;BME280;60413;55.658;37.498;2023-03-18T08:09:49;100766.94;;;5.72;100.00
72423;BME280;60413;55.658;37.498;2023-03-18T08:12:22;100820.50;;;6.25;100.00
72423;BME280;60413;55.658;37.498;2023-03-18T08:14:51;100795.69;;;6.53;100.00
72423;BME280;60413;55.658;37.498;2023-03-18T08:17:22;100762.16;;;5.92;100.00
72423;BME280;60413;55.658;37.498;2023-03-18T08:23:00;100783.84;;;6.25;100.00
72423;BME280;60413;55.658;37.498;2023-03-18T08:25:31;100786.00;;;6.22;100.00
72423;BME280;60413;55.658;37.498;2023-03-18T08:28:00;100761.31;;;6.08;100.00
72423;BME280;60413;55.658;37.498;2023-03-18T08:30:41;100796.81;;;6.19;100.00
72423;BME280;60413;55.658;37.498;2023-03-18T08:33:20;100778.53;;;5.61;100.00
72423;BME280;60413;55.658;37.498;2023-03-18T08:35:50;100785.41;;;5.54;100.00
72423;BME280;60413;55.658;37.498;2023-03-18T08:38:26;100796.81;;;6.19;100.00
72423;BME280;60413;55.658;37.498;2023-03-18T08:40:54;100786.19;;;6.04;100.00
72423;BME280;60413;55.658;37.498;2023-03-18T08:43:34;100759.25;;;5.54;100.00
72423;BME280;60413;55.658;37.498;2023-03-18T08:46:00;100821.03;;;5.80;100.00
72423;BME280;60413;55.658;37.498;2023-03-18T08:48:31;100767.25;;;4.95;100.00
72423;BME280;60413;55.658;37.498;2023-03-18T08:51:37;100776.50;;;4.89;100.00
72423;BME280;60413;55.658;37.498;2023-03-18T08:54:10;100779.25;;;4.29;100.00
72423;BME280;60413;55.658;37.498;2023-03-18T08:56:49;100774.88;;;4.37;100.00
72423;BME280;60413;55.658;37.498;2023-03-18T08:59:22;100832.69;;;4.85;100.00
72423;BME280;60413;55.658;37.498;2023-03-18T09:01:57;100785.22;;;4.55;100.00
72423;BME280;60413;55.658;37.498;2023-03-18T09:04:23;100773.44;;;4.43;100.00
72423;BME280;60413;55.658;37.498;2023-03-18T09:06:54;100731.22;;;4.13;100.00
72423;BME280;60413;55.658;37.498;2023-03-18T09:09:23;100802.13;;;4.77;100.00
72423;BME280;60413;55.658;37.498;2023-03-18T09:11:55;100784.53;;;4.96;100.00
72423;BME280;60413;55.658;37.498;2023-03-18T09:14:30;100799.94;;;5.24;100.00
72423;BME280;60413;55.658;37.498;2023-03-18T09:17:00;100732.13;;;4.30;100.00
72423;BME280;60413;55.658;37.498;2023-03-18T09:19:30;100787.28;;;4.78;100.00
72423;BME280;60413;55.658;37.498;2023-03-18T09:22:08;100739.00;;;4.39;100.00
72423;BME280;60413;55.658;37.498;2023-03-18T09:24:49;100772.88;;;4.23;100.00
72423;BME280;60413;55.658;37.498;2023-03-18T09:27:17;100728.53;;;3.97;100.00
72423;BME280;60413;55.658;37.498;2023-03-18T09:30:03;100730.75;;;3.83;100.00
72423;BME280;60413;55.658;37.498;2023-03-18T09:32:57;100744.03;;;3.98;100.00
72423;BME280;60413;55.658;37.498;2023-03-18T09:36:29;100787.28;;;4.35;100.00
72423;BME280;60413;55.658;37.498;2023-03-18T09:40:07;100696.72;;;4.36;100.00
72423;BME280;60413;55.658;37.498;2023-03-18T09:51:31;100774.75;;;4.90;100.00
72423;BME280;60413;55.658;37.498;2023-03-18T09:54:54;100769.09;;;4.60;100.00
72423;BME280;60413;55.658;37.498;2023-03-18T09:57:39;100722.03;;;4.01;100.00
72423;BME280;60413;55.658;37.498;2023-03-18T10:00:39;100760.00;;;4.30;100.00
72423;BME280;60413;55.658;37.498;2023-03-18T10:07:02;100684.66;;;3.58;100.00
72423;BME280;60413;55.658;37.498;2023-03-18T10:14:39;100743.44;;;3.78;100.00
72423;BME280;60413;55.658;37.498;2023-03-18T10:17:42;100689.06;;;2.95;100.00
72423;BME280;60413;55.658;37.498;2023-03-18T10:20:48;100740.38;;;3.21;100.00
72423;BME280;60413;55.658;37.498;2023-03-18T10:34:18;100650.13;;;2.39;100.00
72423;BME280;60413;55.658;37.498;2023-03-18T10:37:39;100720.97;;;2.97;100.00
72423;BME280;60413;55.658;37.498;2023-03-18T10:41:26;100676.25;;;2.84;100.00
72423;BME280;60413;55.658;37.498;2023-03-18T10:44:29;100653.81;;;2.65;100.00
72423;BME280;60413;55.658;37.498;2023-03-18T10:47:34;100633.94;;;2.82;100.00
72423;BME280;60413;55.658;37.498;2023-03-18T10:58:45;100661.19;;;3.13;100.00
72423;BME280;60413;55.658;37.498;2023-03-18T11:01:53;100704.56;;;3.67;100.00
72423;BME280;60413;55.658;37.498;2023-03-18T11:05:40;100669.00;;;3.31;100.00
72423;BME280;60413;55.658;37.498;2023-03-18T11:08:51;100676.47;;;3.52;100.00
72423;BME280;60413;55.658;37.498;2023-03-18T11:20:37;100700.06;;;3.77;100.00
72423;BME280;60413;55.658;37.498;2023-03-18T11:27:45;100676.28;;;3.54;100.00
72423;BME280;60413;55.658;37.498;2023-03-18T11:39:28;100683.88;;;3.39;100.00
72423;BME280;60413;55.658;37.498;2023-03-18T11:58:37;100676.31;;;4.23;100.00
72423;BME280;60413;55.658;37.498;2023-03-18T12:02:03;100598.84;;;3.38;100.00
72423;BME280;60413;55.658;37.498;2023-03-18T12:05:46;100670.03;;;4.07;100.00
72423;BME280;60413;55.658;37.498;2023-03-18T12:09:27;100655.53;;;4.05;100.00
72423;BME280;60413;55.658;37.498;2023-03-18T12:20:48;100658.25;;;3.61;100.00
72423;BME280;60413;55.658;37.498;2023-03-18T12:46:09;100636.88;;;3.92;100.00
72423;BME280;60413;55.658;37.498;2023-03-18T12:53:39;100634.91;;;3.85;100.00
72423;BME280;60413;55.658;37.498;2023-03-18T12:56:53;100628.63;;;4.04;100.00
72423;BME280;60413;55.658;37.498;2023-03-18T13:21:39;100559.75;;;3.38;100.00
72423;BME280;60413;55.658;37.498;2023-03-18T13:25:26;100584.78;;;3.65;100.00
72423;BME280;60413;55.658;37.498;2023-03-18T13:41:12;100527.41;;;3.65;100.00
72423;BME280;60413;55.658;37.498;2023-03-18T13:57:14;100537.09;;;3.81;100.00
72423;BME280;60413;55.658;37.498;2023-03-18T14:01:26;100539.81;;;3.63;100.00
72423;BME280;60413;55.658;37.498;2023-03-18T14:15:27;100562.69;;;3.43;100.00
72423;BME280;60413;55.658;37.498;2023-03-18T14:19:48;100560.78;;;3.53;100.00
72423;BME280;60413;55.658;37.498;2023-03-18T14:30:50;100566.88;;;3.28;100.00
72423;BME280;60413;55.658;37.498;2023-03-18T14:42:36;100473.78;;;2.51;100.00
72423;BME280;60413;55.658;37.498;2023-03-18T14:45:59;100500.81;;;2.58;100.00
72423;BME280;60413;55.658;37.498;2023-03-18T14:49:01;100556.09;;;2.96;100.00
72423;BME280;60413;55.658;37.498;2023-03-18T14:55:36;100452.53;;;2.38;100.00
72423;BME280;60413;55.658;37.498;2023-03-18T14:58:37;100517.00;;;2.70;100.00
72423;BME280;60413;55.658;37.498;2023-03-18T15:09:30;100481.88;;;2.04;100.00
72423;BME280;60413;55.658;37.498;2023-03-18T15:15:41;100518.63;;;2.27;100.00
72423;BME280;60413;55.658;37.498;2023-03-18T15:22:34;100482.22;;;1.91;100.00
72423;BME280;60413;55.658;37.498;2023-03-18T15:30:04;100496.09;;;1.82;100.00
72423;BME280;60413;55.658;37.498;2023-03-18T15:33:42;100464.34;;;1.60;100.00
72423;BME280;60413;55.658;37.498;2023-03-18T15:37:16;100538.69;;;1.99;100.00
72423;BME280;60413;55.658;37.498;2023-03-18T15:47:34;100529.59;;;1.85;100.00
72423;BME280;60413;55.658;37.498;2023-03-18T15:51:26;100522.69;;;1.76;100.00
72423;BME280;60413;55.658;37.498;2023-03-18T15:58:35;100446.59;;;1.10;100.00
72423;BME280;60413;55.658;37.498;2023-03-18T16:02:31;100435.81;;;1.05;100.00
72423;BME280;60413;55.658;37.498;2023-03-18T16:05:38;100512.41;;;1.56;100.00
72423;BME280;60413;55.658;37.498;2023-03-18T16:08:47;100528.03;;;1.46;100.00
72423;BME280;60413;55.658;37.498;2023-03-18T16:12:09;100477.59;;;1.11;100.00
72423;BME280;60413;55.658;37.498;2023-03-18T16:15:09;100433.16;;;0.87;100.00
72423;BME280;60413;55.658;37.498;2023-03-18T16:18:50;100521.03;;;1.47;100.00
72423;BME280;60413;55.658;37.498;2023-03-18T16:31:47;100425.31;;;0.97;100.00
72423;BME280;60413;55.658;37.498;2023-03-18T16:38:13;100424.84;;;0.83;100.00
72423;BME280;60413;55.658;37.498;2023-03-18T16:48:11;100445.03;;;0.89;100.00
72423;BME280;60413;55.658;37.498;2023-03-18T16:51:21;100426.91;;;0.80;100.00
72423;BME280;60413;55.658;37.498;2023-03-18T16:54:44;100506.53;;;1.26;100.00
72423;BME280;60413;55.658;37.498;2023-03-18T16:57:54;100487.19;;;1.11;100.00
72423;BME280;60413;55.658;37.498;2023-03-18T17:01:14;100496.31;;;1.15;100.00
72423;BME280;60413;55.658;37.498;2023-03-18T17:04:49;100501.81;;;1.12;100.00
72423;BME280;60413;55.658;37.498;2023-03-18T17:07:42;100411.84;;;0.55;100.00
72423;BME280;60413;55.658;37.498;2023-03-18T17:19:17;100482.72;;;0.93;100.00
72423;BME280;60413;55.658;37.498;2023-03-18T17:38:51;100393.47;;;0.20;100.00
72423;BME280;60413;55.658;37.498;2023-03-18T17:51:12;100473.25;;;0.65;100.00
72423;BME280;60413;55.658;37.498;2023-03-18T18:03:13;100486.53;;;0.52;100.00
72423;BME280;60413;55.658;37.498;2023-03-18T18:12:12;100411.94;;;-0.03;100.00
72423;BME280;60413;55.658;37.498;2023-03-18T18:20:03;100419.97;;;-0.06;100.00
72423;BME280;60413;55.658;37.498;2023-03-18T18:27:41;100470.72;;;0.16;100.00
72423;BME280;60413;55.658;37.498;2023-03-18T18:31:33;100383.81;;;-0.37;100.00
72423;BME280;60413;55.658;37.498;2023-03-18T18:35:07;100454.63;;;0.12;100.00
72423;BME280;60413;55.658;37.498;2023-03-18T18:43:17;100377.69;;;-0.46;100.00
72423;BME280;60413;55.658;37.498;2023-03-18T18:57:13;100376.75;;;-0.35;100.00
72423;BME280;60413;55.658;37.498;2023-03-18T19:04:27;100347.16;;;-0.62;100.00
72423;BME280;60413;55.658;37.498;2023-03-18T19:07:42;100363.09;;;-0.66;100.00
72423;BME280;60413;55.658;37.498;2023-03-18T19:11:03;100389.44;;;-0.42;100.00
72423;BME280;60413;55.658;37.498;2023-03-18T19:13:50;100334.31;;;-0.83;100.00
72423;BME280;60413;55.658;37.498;2023-03-18T19:16:33;100342.09;;;-0.83;100.00
72423;BME280;60413;55.658;37.498;2023-03-18T19:19:07;100400.03;;;-0.54;100.00
72423;BME280;60413;55.658;37.498;2023-03-18T19:22:53;100349.16;;;-0.85;100.00
72423;BME280;60413;55.658;37.498;2023-03-18T19:28:29;100344.38;;;-0.99;100.00
72423;BME280;60413;55.658;37.498;2023-03-18T19:31:09;100319.44;;;-1.10;100.00
72423;BME280;60413;55.658;37.498;2023-03-18T19:34:29;100324.88;;;-1.13;100.00
72423;BME280;60413;55.658;37.498;2023-03-18T19:37:33;100319.78;;;-1.24;100.00
72423;BME280;60413;55.658;37.498;2023-03-18T19:40:28;100320.22;;;-1.19;100.00
72423;BME280;60413;55.658;37.498;2023-03-18T19:43:30;100407.63;;;-0.72;100.00
72423;BME280;60413;55.658;37.498;2023-03-18T19:58:00;100358.91;;;-1.08;100.00
72423;BME280;60413;55.658;37.498;2023-03-18T20:04:00;100289.50;;;-1.53;100.00
72423;BME280;60413;55.658;37.498;2023-03-18T20:06:26;100304.31;;;-1.55;100.00
72423;BME280;60413;55.658;37.498;2023-03-18T20:09:06;100309.50;;;-1.55;100.00
72423;BME280;60413;55.658;37.498;2023-03-18T20:11:50;100335.41;;;-1.36;100.00
72423;BME280;60413;55.658;37.498;2023-03-18T20:14:29;100292.72;;;-1.61;100.00
72423;BME280;60413;55.658;37.498;2023-03-18T20:20:34;100356.00;;;-1.24;100.00
72423;BME280;60413;55.658;37.498;2023-03-18T20:23:15;100307.97;;;-1.58;100.00